sensor_id;sensor_type;location;lat;lon;timestamp;temperature;humidity
41310;DHT22;27057;51.438;-0.010;2023-04-06T00:02:01;10.00;99.90
41310;DHT22;27057;51.438;-0.010;2023-04-06T00:04:28;10.00;99.90
41310;DHT22;27057;51.438;-0.010;2023-04-06T00:06:55;10.00;99.90
41310;DHT22;27057;51.438;-0.010;2023-04-06T00:09:23;10.40;99.90
41310;DHT22;27057;51.438;-0.010;2023-04-06T00:11:51;11.30;99.90
41310;DHT22;27057;51.438;-0.010;2023-04-06T00:14:18;9.90;99.90
41310;DHT22;27057;51.438;-0.010;2023-04-06T00:16:45;9.90;99.90
41310;DHT22;27057;51.438;-0.010;2023-04-06T00:21:41;9.80;99.90
41310;DHT22;27057;51.438;-0.010;2023-04-06T00:24:08;10.50;99.90
41310;DHT22;27057;51.438;-0.010;2023-04-06T00:26:36;10.00;99.90
41310;DHT22;27057;51.438;-0.010;2023-04-06T00:29:03;9.70;99.90
41310;DHT22;27057;51.438;-0.010;2023-04-06T00:31:31;10.30;99.90
41310;DHT22;27057;51.438;-0.010;2023-04-06T00:33:59;9.80;99.90
41310;DHT22;27057;51.438;-0.010;2023-04-06T00:36:26;9.90;99.90
41310;DHT22;27057;51.438;-0.010;2023-04-06T00:38:54;9.80;99.90
41310;DHT22;27057;51.438;-0.010;2023-04-06T00:41:22;10.90;99.90
41310;DHT22;27057;51.438;-0.010;2023-04-06T00:43:49;9.90;99.90
41310;DHT22;27057;51.438;-0.010;2023-04-06T00:46:17;9.70;99.90
41310;DHT22;27057;51.438;-0.010;2023-04-06T00:48:44;9.70;99.90
41310;DHT22;27057;51.438;-0.010;2023-04-06T00:53:39;9.70;99.90
41310;DHT22;27057;51.438;-0.010;2023-04-06T00:56:08;10.10;99.90
41310;DHT22;27057;51.438;-0.010;2023-04-06T00:58:48;9.60;99.90
41310;DHT22;27057;51.438;-0.010;2023-04-06T01:01:16;9.70;99.90
41310;DHT22;27057;51.438;-0.010;2023-04-06T01:03:44;9.60;99.90
41310;DHT22;27057;51.438;-0.010;2023-04-06T01:06:17;9.80;99.90
41310;DHT22;27057;51.438;-0.010;2023-04-06T01:08:52;10.40;99.90
41310;DHT22;27057;51.438;-0.010;2023-04-06T01:11:22;10.00;99.90
41310;DHT22;27057;51.438;-0.010;2023-04-06T01:13:50;9.80;99.90
41310;DHT22;27057;51.438;-0.010;2023-04-06T01:16:35;9.90;99.90
41310;DHT22;27057;51.438;-0.010;2023-04-06T01:19:18;9.70;99.90
41310;DHT22;27057;51.438;-0.010;2023-04-06T01:24:22;9.60;99.90
41310;DHT22;27057;51.438;-0.010;2023-04-06T01:27:01;9.40;99.90
41310;DHT22;27057;51.438;-0.010;2023-04-06T01:29:39;9.90;99.90
41310;DHT22;27057;51.438;-0.010;2023-04-06T01:32:13;9.50;99.90
41310;DHT22;27057;51.438;-0.010;2023-04-06T01:39:51;9.50;99.90
41310;DHT22;27057;51.438;-0.010;2023-04-06T01:42:33;9.50;99.90
41310;DHT22;27057;51.438;-0.010;2023-04-06T01:45:00;9.80;99.90
41310;DHT22;27057;51.438;-0.010;2023-04-06T01:47:29;9.80;99.90
41310;DHT22;27057;51.438;-0.010;2023-04-06T01:49:57;9.70;99.90
41310;DHT22;27057;51.438;-0.010;2023-04-06T01:52:26;9.50;99.90
41310;DHT22;27057;51.438;-0.010;2023-04-06T01:54:54;9.60;99.90
41310;DHT22;27057;51.438;-0.010;2023-04-06T01:57:38;9.90;99.90
41310;DHT22;27057;51.438;-0.010;2023-04-06T02:02:56;9.50;99.90
41310;DHT22;27057;51.438;-0.010;2023-04-06T02:05:27;9.50;99.90
41310;DHT22;27057;51.438;-0.010;2023-04-06T02:07:55;9.70;99.90
41310;DHT22;27057;51.438;-0.010;2023-04-06T02:10:31;9.50;99.90
41310;DHT22;27057;51.438;-0.010;2023-04-06T02:13:03;9.50;99.90
41310;DHT22;27057;51.438;-0.010;2023-04-06T02:15:31;9.70;99.90
41310;DHT22;27057;51.438;-0.010;2023-04-06T02:17:59;9.70;99.90
41310;DHT22;27057;51.438;-0.010;2023-04-06T02:20:27;9.70;99.90
41310;DHT22;27057;51.438;-0.010;2023-04-06T02:22:58;10.50;99.90
41310;DHT22;27057;51.438;-0.010;2023-04-06T02:25:25;10.50;99.90
41310;DHT22;27057;51.438;-0.010;2023-04-06T02:27:54;9.50;99.90
41310;DHT22;27057;51.438;-0.010;2023-04-06T02:30:21;9.60;99.90
41310;DHT22;27057;51.438;-0.010;2023-04-06T02:32:49;9.80;99.90
41310;DHT22;27057;51.438;-0.010;2023-04-06T02:35:17;10.40;99.90
41310;DHT22;27057;51.438;-0.010;2023-04-06T02:37:47;9.80;99.90
41310;DHT22;27057;51.438;-0.010;2023-04-06T02:40:15;9.50;99.90
41310;DHT22;27057;51.438;-0.010;2023-04-06T02:42:42;9.50;99.90
41310;DHT22;27057;51.438;-0.010;2023-04-06T02:45:10;9.50;99.90
41310;DHT22;27057;51.438;-0.010;2023-04-06T02:47:42;9.70;99.90
41310;DHT22;27057;51.438;-0.010;2023-04-06T02:50:12;9.50;99.90
41310;DHT22;27057;51.438;-0.010;2023-04-06T02:52:47;9.50;99.90
41310;DHT22;27057;51.438;-0.010;2023-04-06T02:55:15;10.60;99.90
41310;DHT22;27057;51.438;-0.010;2023-04-06T03:00:11;9.60;99.90
41310;DHT22;27057;51.438;-0.010;2023-04-06T03:02:40;9.50;99.90
41310;DHT22;27057;51.438;-0.010;2023-04-06T03:05:12;9.40;99.90
41310;DHT22;27057;51.438;-0.010;2023-04-06T03:07:42;9.50;99.90
41310;DHT22;27057;51.438;-0.010;2023-04-06T03:10:17;9.50;99.90
41310;DHT22;27057;51.438;-0.010;2023-04-06T03:12:46;10.00;99.90
41310;DHT22;27057;51.438;-0.010;2023-04-06T03:15:21;9.50;99.90
41310;DHT22;27057;51.438;-0.010;2023-04-06T03:17:54;9.20;99.90
41310;DHT22;27057;51.438;-0.010;2023-04-06T03:20:32;10.40;99.90
41310;DHT22;27057;51.438;-0.010;2023-04-06T03:23:00;9.50;99.90
41310;DHT22;27057;51.438;-0.010;2023-04-06T03:30:34;9.60;99.90
41310;DHT22;27057;51.438;-0.010;2023-04-06T03:33:02;10.30;99.90
41310;DHT22;27057;51.438;-0.010;2023-04-06T03:35:33;9.50;99.90
41310;DHT22;27057;51.438;-0.010;2023-04-06T03:38:01;9.60;99.90
41310;DHT22;27057;51.438;-0.010;2023-04-06T03:42:57;9.60;99.90
41310;DHT22;27057;51.438;-0.010;2023-04-06T03:45:25;9.70;99.90
41310;DHT22;27057;51.438;-0.010;2023-04-06T03:47:52;9.70;99.90
41310;DHT22;27057;51.438;-0.010;2023-04-06T03:50:20;9.90;99.90
41310;DHT22;27057;51.438;-0.010;2023-04-06T03:55:15;9.60;99.90
41310;DHT22;27057;51.438;-0.010;2023-04-06T03:57:42;9.60;99.90
41310;DHT22;27057;51.438;-0.010;2023-04-06T04:00:10;10.50;99.90
41310;DHT22;27057;51.438;-0.010;2023-04-06T04:02:40;9.60;99.90
41310;DHT22;27057;51.438;-0.010;2023-04-06T04:05:08;9.90;99.90
41310;DHT22;27057;51.438;-0.010;2023-04-06T04:10:06;9.70;99.90
41310;DHT22;27057;51.438;-0.010;2023-04-06T04:15:02;9.70;99.90
41310;DHT22;27057;51.438;-0.010;2023-04-06T04:17:30;10.10;99.90
41310;DHT22;27057;51.438;-0.010;2023-04-06T04:19:57;10.10;99.90
41310;DHT22;27057;51.438;-0.010;2023-04-06T04:22:25;9.90;99.90
41310;DHT22;27057;51.438;-0.010;2023-04-06T04:27:20;9.80;99.90
41310;DHT22;27057;51.438;-0.010;2023-04-06T04:29:49;10.00;99.90
41310;DHT22;27057;51.438;-0.010;2023-04-06T04:32:19;9.70;99.90
41310;DHT22;27057;51.438;-0.010;2023-04-06T04:37:30;9.80;99.90
41310;DHT22;27057;51.438;-0.010;2023-04-06T04:39:58;9.80;99.90
41310;DHT22;27057;51.438;-0.010;2023-04-06T04:42:27;10.00;99.90
41310;DHT22;27057;51.438;-0.010;2023-04-06T04:44:58;9.80;99.90
41310;DHT22;27057;51.438;-0.010;2023-04-06T04:47:36;9.90;99.90
41310;DHT22;27057;51.438;-0.010;2023-04-06T04:50:06;10.60;99.90
41310;DHT22;27057;51.438;-0.010;2023-04-06T04:52:37;9.90;99.90
41310;DHT22;27057;51.438;-0.010;2023-04-06T04:55:17;10.20;99.90
41310;DHT22;27057;51.438;-0.010;2023-04-06T04:57:47;10.80;99.90
41310;DHT22;27057;51.438;-0.010;2023-04-06T05:00:17;10.50;99.90
41310;DHT22;27057;51.438;-0.010;2023-04-06T05:02:45;9.90;99.90
41310;DHT22;27057;51.438;-0.010;2023-04-06T05:05:39;10.00;99.90
41310;DHT22;27057;51.438;-0.010;2023-04-06T05:08:07;10.00;99.90
41310;DHT22;27057;51.438;-0.010;2023-04-06T05:10:47;10.00;99.90
41310;DHT22;27057;51.438;-0.010;2023-04-06T05:13:15;9.60;99.90
41310;DHT22;27057;51.438;-0.010;2023-04-06T05:15:45;10.30;99.90
41310;DHT22;27057;51.438;-0.010;2023-04-06T05:18:33;10.20;99.90
41310;DHT22;27057;51.438;-0.010;2023-04-06T05:23:41;10.10;99.90
41310;DHT22;27057;51.438;-0.010;2023-04-06T05:26:09;10.20;99.90
41310;DHT22;27057;51.438;-0.010;2023-04-06T05:28:36;10.20;99.90
41310;DHT22;27057;51.438;-0.010;2023-04-06T05:33:43;10.10;99.90
41310;DHT22;27057;51.438;-0.010;2023-04-06T05:38:45;10.20;99.90
41310;DHT22;27057;51.438;-0.010;2023-04-06T05:41:22;10.10;99.90
41310;DHT22;27057;51.438;-0.010;2023-04-06T05:46:18;9.90;99.90
41310;DHT22;27057;51.438;-0.010;2023-04-06T05:48:46;9.60;99.90
41310;DHT22;27057;51.438;-0.010;2023-04-06T05:51:14;10.30;99.90
41310;DHT22;27057;51.438;-0.010;2023-04-06T05:53:46;10.20;99.90
41310;DHT22;27057;51.438;-0.010;2023-04-06T05:56:14;10.20;99.90
41310;DHT22;27057;51.438;-0.010;2023-04-06T05:58:42;10.20;99.90
41310;DHT22;27057;51.438;-0.010;2023-04-06T06:01:13;10.20;99.90
41310;DHT22;27057;51.438;-0.010;2023-04-06T06:03:44;10.20;99.90
41310;DHT22;27057;51.438;-0.010;2023-04-06T06:06:12;10.20;99.90
41310;DHT22;27057;51.438;-0.010;2023-04-06T06:09:00;10.30;99.90
41310;DHT22;27057;51.438;-0.010;2023-04-06T06:11:31;10.30;99.90
41310;DHT22;27057;51.438;-0.010;2023-04-06T06:14:01;10.30;99.90
41310;DHT22;27057;51.438;-0.010;2023-04-06T06:16:30;10.40;99.90
41310;DHT22;27057;51.438;-0.010;2023-04-06T06:18:58;11.40;99.90
41310;DHT22;27057;51.438;-0.010;2023-04-06T06:21:25;10.30;99.90
41310;DHT22;27057;51.438;-0.010;2023-04-06T06:26:23;10.40;99.90
41310;DHT22;27057;51.438;-0.010;2023-04-06T06:28:51;10.40;99.90
41310;DHT22;27057;51.438;-0.010;2023-04-06T06:31:19;11.10;99.90
41310;DHT22;27057;51.438;-0.010;2023-04-06T06:33:49;10.40;99.90
41310;DHT22;27057;51.438;-0.010;2023-04-06T06:36:19;10.40;99.90
41310;DHT22;27057;51.438;-0.010;2023-04-06T06:38:47;10.40;99.90
41310;DHT22;27057;51.438;-0.010;2023-04-06T06:41:17;10.40;99.90
41310;DHT22;27057;51.438;-0.010;2023-04-06T06:43:45;10.40;99.90
41310;DHT22;27057;51.438;-0.010;2023-04-06T06:46:12;10.50;99.90
41310;DHT22;27057;51.438;-0.010;2023-04-06T06:48:40;10.90;99.90
41310;DHT22;27057;51.438;-0.010;2023-04-06T06:51:09;10.60;99.90
41310;DHT22;27057;51.438;-0.010;2023-04-06T06:53:40;10.80;99.90
41310;DHT22;27057;51.438;-0.010;2023-04-06T06:56:07;10.60;99.90
41310;DHT22;27057;51.438;-0.010;2023-04-06T06:58:35;10.70;99.90
41310;DHT22;27057;51.438;-0.010;2023-04-06T07:01:03;10.70;99.90
41310;DHT22;27057;51.438;-0.010;2023-04-06T07:03:33;10.70;99.90
41310;DHT22;27057;51.438;-0.010;2023-04-06T07:06:01;10.70;99.90
41310;DHT22;27057;51.438;-0.010;2023-04-06T07:08:29;10.70;99.90
41310;DHT22;27057;51.438;-0.010;2023-04-06T07:10:57;11.20;99.90
41310;DHT22;27057;51.438;-0.010;2023-04-06T07:13:24;11.50;99.90
41310;DHT22;27057;51.438;-0.010;2023-04-06T07:15:56;10.90;99.90
41310;DHT22;27057;51.438;-0.010;2023-04-06T07:18:24;11.00;99.90
41310;DHT22;27057;51.438;-0.010;2023-04-06T07:20:52;11.00;99.90
41310;DHT22;27057;51.438;-0.010;2023-04-06T07:23:19;11.20;99.90
41310;DHT22;27057;51.438;-0.010;2023-04-06T07:25:47;11.20;99.90
41310;DHT22;27057;51.438;-0.010;2023-04-06T07:28:15;11.40;99.90
41310;DHT22;27057;51.438;-0.010;2023-04-06T07:30:43;11.40;99.90
41310;DHT22;27057;51.438;-0.010;2023-04-06T07:33:13;11.60;99.90
41310;DHT22;27057;51.438;-0.010;2023-04-06T07:35:41;11.50;99.90
41310;DHT22;27057;51.438;-0.010;2023-04-06T07:38:10;11.60;99.90
41310;DHT22;27057;51.438;-0.010;2023-04-06T07:40:39;11.60;99.90
41310;DHT22;27057;51.438;-0.010;2023-04-06T07:43:07;11.50;99.90
41310;DHT22;27057;51.438;-0.010;2023-04-06T07:45:35;11.40;99.90
41310;DHT22;27057;51.438;-0.010;2023-04-06T07:48:03;11.40;99.90
41310;DHT22;27057;51.438;-0.010;2023-04-06T07:50:32;11.30;99.90
41310;DHT22;27057;51.438;-0.010;2023-04-06T07:52:59;11.40;99.90
41310;DHT22;27057;51.438;-0.010;2023-04-06T07:55:28;11.40;99.90
41310;DHT22;27057;51.438;-0.010;2023-04-06T07:57:55;11.40;99.90
41310;DHT22;27057;51.438;-0.010;2023-04-06T08:00:23;11.40;99.90
41310;DHT22;27057;51.438;-0.010;2023-04-06T08:02:51;11.30;99.90
41310;DHT22;27057;51.438;-0.010;2023-04-06T08:05:18;11.30;99.90
41310;DHT22;27057;51.438;-0.010;2023-04-06T08:07:46;11.20;99.90
41310;DHT22;27057;51.438;-0.010;2023-04-06T08:10:13;11.30;99.90
41310;DHT22;27057;51.438;-0.010;2023-04-06T08:12:41;11.40;99.90
41310;DHT22;27057;51.438;-0.010;2023-04-06T08:15:08;11.50;99.90
41310;DHT22;27057;51.438;-0.010;2023-04-06T08:17:36;11.20;99.90
41310;DHT22;27057;51.438;-0.010;2023-04-06T08:20:04;11.20;99.90
41310;DHT22;27057;51.438;-0.010;2023-04-06T08:22:32;11.20;99.90
41310;DHT22;27057;51.438;-0.010;2023-04-06T08:24:59;11.30;99.90
41310;DHT22;27057;51.438;-0.010;2023-04-06T08:27:27;11.40;99.90
41310;DHT22;27057;51.438;-0.010;2023-04-06T08:29:54;11.30;99.90
41310;DHT22;27057;51.438;-0.010;2023-04-06T08:32:22;11.10;99.90
41310;DHT22;27057;51.438;-0.010;2023-04-06T08:34:53;11.00;99.90
41310;DHT22;27057;51.438;-0.010;2023-04-06T08:37:22;11.20;99.90
41310;DHT22;27057;51.438;-0.010;2023-04-06T08:39:50;11.00;99.90
41310;DHT22;27057;51.438;-0.010;2023-04-06T08:42:21;11.10;99.90
41310;DHT22;27057;51.438;-0.010;2023-04-06T08:44:52;11.40;99.90
41310;DHT22;27057;51.438;-0.010;2023-04-06T08:47:21;11.20;99.90
41310;DHT22;27057;51.438;-0.010;2023-04-06T08:49:51;12.30;99.90
41310;DHT22;27057;51.438;-0.010;2023-04-06T08:52:19;11.40;99.90
41310;DHT22;27057;51.438;-0.010;2023-04-06T08:54:47;11.20;99.90
41310;DHT22;27057;51.438;-0.010;2023-04-06T08:57:15;10.90;99.90
41310;DHT22;27057;51.438;-0.010;2023-04-06T08:59:44;11.50;99.90
41310;DHT22;27057;51.438;-0.010;2023-04-06T09:02:17;11.60;99.90
41310;DHT22;27057;51.438;-0.010;2023-04-06T09:04:48;11.80;99.90
41310;DHT22;27057;51.438;-0.010;2023-04-06T09:07:17;11.60;99.90
41310;DHT22;27057;51.438;-0.010;2023-04-06T09:09:45;11.80;99.90
41310;DHT22;27057;51.438;-0.010;2023-04-06T09:12:26;12.10;99.90
41310;DHT22;27057;51.438;-0.010;2023-04-06T09:14:54;12.20;99.90
41310;DHT22;27057;51.438;-0.010;2023-04-06T09:17:25;12.10;99.90
41310;DHT22;27057;51.438;-0.010;2023-04-06T09:19:52;12.40;99.90
41310;DHT22;27057;51.438;-0.010;2023-04-06T09:22:20;12.40;99.90
41310;DHT22;27057;51.438;-0.010;2023-04-06T09:24:54;12.10;99.90
41310;DHT22;27057;51.438;-0.010;2023-04-06T09:27:32;12.30;99.90
41310;DHT22;27057;51.438;-0.010;2023-04-06T09:30:10;12.20;99.90
41310;DHT22;27057;51.438;-0.010;2023-04-06T09:32:52;12.10;99.90
41310;DHT22;27057;51.438;-0.010;2023-04-06T09:35:20;12.10;99.90
41310;DHT22;27057;51.438;-0.010;2023-04-06T09:37:52;12.40;99.90
41310;DHT22;27057;51.438;-0.010;2023-04-06T09:40:20;12.10;99.90
41310;DHT22;27057;51.438;-0.010;2023-04-06T09:42:50;11.60;99.90
41310;DHT22;27057;51.438;-0.010;2023-04-06T09:45:20;11.70;99.90
41310;DHT22;27057;51.438;-0.010;2023-04-06T09:47:48;11.90;99.90
41310;DHT22;27057;51.438;-0.010;2023-04-06T09:50:19;12.10;99.90
41310;DHT22;27057;51.438;-0.010;2023-04-06T09:52:49;11.80;99.90
41310;DHT22;27057;51.438;-0.010;2023-04-06T09:55:29;11.80;99.90
41310;DHT22;27057;51.438;-0.010;2023-04-06T09:58:12;11.80;99.90
41310;DHT22;27057;51.438;-0.010;2023-04-06T10:00:48;11.80;99.90
41310;DHT22;27057;51.438;-0.010;2023-04-06T10:05:55;12.10;99.90
41310;DHT22;27057;51.438;-0.010;2023-04-06T10:08:28;12.30;99.90
41310;DHT22;27057;51.438;-0.010;2023-04-06T10:11:00;12.20;99.90
41310;DHT22;27057;51.438;-0.010;2023-04-06T10:13:28;12.00;99.90
41310;DHT22;27057;51.438;-0.010;2023-04-06T10:15:57;12.00;99.90
41310;DHT22;27057;51.438;-0.010;2023-04-06T10:18:27;12.10;99.90
41310;DHT22;27057;51.438;-0.010;2023-04-06T10:21:18;12.50;99.90
41310;DHT22;27057;51.438;-0.010;2023-04-06T10:23:51;12.10;99.90
41310;DHT22;27057;51.438;-0.010;2023-04-06T10:26:21;12.20;99.90
41310;DHT22;27057;51.438;-0.010;2023-04-06T10:28:49;12.40;99.90
41310;DHT22;27057;51.438;-0.010;2023-04-06T10:31:27;12.50;99.90
41310;DHT22;27057;51.438;-0.010;2023-04-06T10:34:00;12.70;99.90
41310;DHT22;27057;51.438;-0.010;2023-04-06T10:36:31;12.80;99.90
41310;DHT22;27057;51.438;-0.010;2023-04-06T10:39:04;12.90;99.90
41310;DHT22;27057;51.438;-0.010;2023-04-06T10:41:36;12.90;99.90
41310;DHT22;27057;51.438;-0.010;2023-04-06T10:44:16;13.00;99.90
41310;DHT22;27057;51.438;-0.010;2023-04-06T10:46:56;13.00;99.90
41310;DHT22;27057;51.438;-0.010;2023-04-06T10:49:25;13.30;99.90
41310;DHT22;27057;51.438;-0.010;2023-04-06T10:51:55;13.40;99.90
41310;DHT22;27057;51.438;-0.010;2023-04-06T10:54:24;13.40;99.90
41310;DHT22;27057;51.438;-0.010;2023-04-06T10:56:52;13.20;99.90
41310;DHT22;27057;51.438;-0.010;2023-04-06T10:59:20;13.40;99.90
41310;DHT22;27057;51.438;-0.010;2023-04-06T11:01:49;13.30;99.90
41310;DHT22;27057;51.438;-0.010;2023-04-06T11:04:17;13.30;99.90
41310;DHT22;27057;51.438;-0.010;2023-04-06T11:06:49;13.50;99.90
41310;DHT22;27057;51.438;-0.010;2023-04-06T11:09:27;13.30;99.90
41310;DHT22;27057;51.438;-0.010;2023-04-06T11:11:55;13.20;99.90
41310;DHT22;27057;51.438;-0.010;2023-04-06T11:14:24;13.10;99.90
41310;DHT22;27057;51.438;-0.010;2023-04-06T11:16:51;13.40;99.90
41310;DHT22;27057;51.438;-0.010;2023-04-06T11:19:19;13.60;99.90
41310;DHT22;27057;51.438;-0.010;2023-04-06T11:21:48;13.60;99.90
41310;DHT22;27057;51.438;-0.010;2023-04-06T11:24:23;13.80;99.90
41310;DHT22;27057;51.438;-0.010;2023-04-06T11:26:56;13.70;99.90
41310;DHT22;27057;51.438;-0.010;2023-04-06T11:29:28;13.60;99.90
41310;DHT22;27057;51.438;-0.010;2023-04-06T11:32:05;13.40;99.90
41310;DHT22;27057;51.438;-0.010;2023-04-06T11:34:37;13.20;99.90
41310;DHT22;27057;51.438;-0.010;2023-04-06T11:37:10;13.30;99.90
41310;DHT22;27057;51.438;-0.010;2023-04-06T11:39:39;13.60;99.90
41310;DHT22;27057;51.438;-0.010;2023-04-06T11:42:08;13.60;99.90
41310;DHT22;27057;51.438;-0.010;2023-04-06T11:44:40;13.90;99.90
41310;DHT22;27057;51.438;-0.010;2023-04-06T11:47:10;13.70;99.90
41310;DHT22;27057;51.438;-0.010;2023-04-06T11:49:42;13.80;99.90
41310;DHT22;27057;51.438;-0.010;2023-04-06T11:52:19;13.80;99.90
41310;DHT22;27057;51.438;-0.010;2023-04-06T11:54:48;13.20;99.90
41310;DHT22;27057;51.438;-0.010;2023-04-06T11:57:17;13.40;99.90
41310;DHT22;27057;51.438;-0.010;2023-04-06T11:59:45;13.30;99.90
41310;DHT22;27057;51.438;-0.010;2023-04-06T12:02:12;13.10;99.90
41310;DHT22;27057;51.438;-0.010;2023-04-06T12:04:40;13.00;99.90
41310;DHT22;27057;51.438;-0.010;2023-04-06T12:07:08;12.50;99.90
41310;DHT22;27057;51.438;-0.010;2023-04-06T12:09:35;12.20;99.90
41310;DHT22;27057;51.438;-0.010;2023-04-06T12:12:04;12.20;99.90
41310;DHT22;27057;51.438;-0.010;2023-04-06T12:14:31;12.50;99.90
41310;DHT22;27057;51.438;-0.010;2023-04-06T12:16:58;12.90;99.90
41310;DHT22;27057;51.438;-0.010;2023-04-06T12:19:26;13.50;99.90
41310;DHT22;27057;51.438;-0.010;2023-04-06T12:21:54;13.80;99.90
41310;DHT22;27057;51.438;-0.010;2023-04-06T12:24:21;14.10;99.90
41310;DHT22;27057;51.438;-0.010;2023-04-06T12:26:49;14.20;99.90
41310;DHT22;27057;51.438;-0.010;2023-04-06T12:29:26;14.00;99.90
41310;DHT22;27057;51.438;-0.010;2023-04-06T12:31:53;14.30;99.90
41310;DHT22;27057;51.438;-0.010;2023-04-06T12:34:21;14.20;99.90
41310;DHT22;27057;51.438;-0.010;2023-04-06T12:36:48;14.20;99.90
41310;DHT22;27057;51.438;-0.010;2023-04-06T12:39:16;14.00;99.90
41310;DHT22;27057;51.438;-0.010;2023-04-06T12:41:46;14.00;99.90
41310;DHT22;27057;51.438;-0.010;2023-04-06T12:44:14;14.10;99.90
41310;DHT22;27057;51.438;-0.010;2023-04-06T12:46:42;14.40;99.90
41310;DHT22;27057;51.438;-0.010;2023-04-06T12:49:10;14.50;99.90
41310;DHT22;27057;51.438;-0.010;2023-04-06T12:51:38;14.70;99.90
41310;DHT22;27057;51.438;-0.010;2023-04-06T12:54:06;14.70;99.90
41310;DHT22;27057;51.438;-0.010;2023-04-06T12:56:35;15.30;99.90
41310;DHT22;27057;51.438;-0.010;2023-04-06T12:59:02;15.70;99.90
41310;DHT22;27057;51.438;-0.010;2023-04-06T13:01:29;16.30;99.90
41310;DHT22;27057;51.438;-0.010;2023-04-06T13:03:57;16.70;99.90
41310;DHT22;27057;51.438;-0.010;2023-04-06T13:06:26;16.80;99.90
41310;DHT22;27057;51.438;-0.010;2023-04-06T13:13:54;16.40;99.90
41310;DHT22;27057;51.438;-0.010;2023-04-06T13:16:22;15.90;99.90
41310;DHT22;27057;51.438;-0.010;2023-04-06T13:18:49;15.60;99.90
41310;DHT22;27057;51.438;-0.010;2023-04-06T13:21:17;15.20;99.90
41310;DHT22;27057;51.438;-0.010;2023-04-06T13:23:44;15.10;99.90
41310;DHT22;27057;51.438;-0.010;2023-04-06T13:26:12;15.30;99.90
41310;DHT22;27057;51.438;-0.010;2023-04-06T13:28:40;15.30;99.90
41310;DHT22;27057;51.438;-0.010;2023-04-06T13:36:06;16.70;99.90
41310;DHT22;27057;51.438;-0.010;2023-04-06T13:38:34;17.30;99.90
41310;DHT22;27057;51.438;-0.010;2023-04-06T13:43:29;17.30;99.90
41310;DHT22;27057;51.438;-0.010;2023-04-06T13:45:57;17.00;99.90
41310;DHT22;27057;51.438;-0.010;2023-04-06T13:50:54;16.20;99.90
41310;DHT22;27057;51.438;-0.010;2023-04-06T13:55:53;15.50;99.90
41310;DHT22;27057;51.438;-0.010;2023-04-06T13:58:21;15.30;99.90
41310;DHT22;27057;51.438;-0.010;2023-04-06T14:00:49;15.20;99.90
41310;DHT22;27057;51.438;-0.010;2023-04-06T14:03:17;15.30;99.90
41310;DHT22;27057;51.438;-0.010;2023-04-06T14:05:45;15.30;99.90
41310;DHT22;27057;51.438;-0.010;2023-04-06T14:08:12;15.10;99.90
41310;DHT22;27057;51.438;-0.010;2023-04-06T14:10:40;15.30;99.90
41310;DHT22;27057;51.438;-0.010;2023-04-06T14:13:09;14.30;99.90
41310;DHT22;27057;51.438;-0.010;2023-04-06T14:15:37;14.70;99.90
41310;DHT22;27057;51.438;-0.010;2023-04-06T14:18:05;14.50;99.90
41310;DHT22;27057;51.438;-0.010;2023-04-06T14:20:35;14.50;99.90
41310;DHT22;27057;51.438;-0.010;2023-04-06T14:23:03;14.10;99.90
41310;DHT22;27057;51.438;-0.010;2023-04-06T14:25:30;13.70;99.90
41310;DHT22;27057;51.438;-0.010;2023-04-06T14:28:02;13.90;99.90
41310;DHT22;27057;51.438;-0.010;2023-04-06T14:30:32;13.70;99.90
41310;DHT22;27057;51.438;-0.010;2023-04-06T14:33:00;13.90;99.90
41310;DHT22;27057;51.438;-0.010;2023-04-06T14:35:27;14.90;99.90
41310;DHT22;27057;51.438;-0.010;2023-04-06T14:37:56;13.50;99.90
41310;DHT22;27057;51.438;-0.010;2023-04-06T14:40:25;13.60;99.90
41310;DHT22;27057;51.438;-0.010;2023-04-06T14:42:52;13.50;99.90
41310;DHT22;27057;51.438;-0.010;2023-04-06T14:45:19;13.30;99.90
41310;DHT22;27057;51.438;-0.010;2023-04-06T14:47:48;13.40;99.90
41310;DHT22;27057;51.438;-0.010;2023-04-06T14:50:16;13.10;99.90
41310;DHT22;27057;51.438;-0.010;2023-04-06T14:52:44;13.30;99.90
41310;DHT22;27057;51.438;-0.010;2023-04-06T14:55:13;12.60;99.90
41310;DHT22;27057;51.438;-0.010;2023-04-06T14:57:41;12.60;99.90
41310;DHT22;27057;51.438;-0.010;2023-04-06T15:00:09;12.30;99.90
41310;DHT22;27057;51.438;-0.010;2023-04-06T15:02:37;12.00;99.90
41310;DHT22;27057;51.438;-0.010;2023-04-06T15:05:05;11.60;99.90
41310;DHT22;27057;51.438;-0.010;2023-04-06T15:07:33;11.50;99.90
41310;DHT22;27057;51.438;-0.010;2023-04-06T15:10:00;11.80;99.90
41310;DHT22;27057;51.438;-0.010;2023-04-06T15:14:56;11.20;99.90
41310;DHT22;27057;51.438;-0.010;2023-04-06T15:17:24;11.40;99.90
41310;DHT22;27057;51.438;-0.010;2023-04-06T15:22:21;11.30;99.90
41310;DHT22;27057;51.438;-0.010;2023-04-06T15:24:49;11.40;99.90
41310;DHT22;27057;51.438;-0.010;2023-04-06T15:27:16;11.40;99.90
41310;DHT22;27057;51.438;-0.010;2023-04-06T15:32:11;11.60;99.90
41310;DHT22;27057;51.438;-0.010;2023-04-06T15:34:39;13.00;99.90
41310;DHT22;27057;51.438;-0.010;2023-04-06T15:37:07;11.90;99.90
41310;DHT22;27057;51.438;-0.010;2023-04-06T15:39:35;12.00;99.90
41310;DHT22;27057;51.438;-0.010;2023-04-06T15:42:04;12.10;99.90
41310;DHT22;27057;51.438;-0.010;2023-04-06T15:44:31;12.30;99.90
41310;DHT22;27057;51.438;-0.010;2023-04-06T15:46:58;12.80;99.90
41310;DHT22;27057;51.438;-0.010;2023-04-06T15:49:26;14.50;99.90
41310;DHT22;27057;51.438;-0.010;2023-04-06T15:51:53;13.30;99.90
41310;DHT22;27057;51.438;-0.010;2023-04-06T15:54:21;13.70;99.90
41310;DHT22;27057;51.438;-0.010;2023-04-06T15:56:49;13.20;99.90
41310;DHT22;27057;51.438;-0.010;2023-04-06T15:59:17;13.70;99.90
41310;DHT22;27057;51.438;-0.010;2023-04-06T16:01:45;15.10;99.90
41310;DHT22;27057;51.438;-0.010;2023-04-06T16:04:13;14.90;99.90
41310;DHT22;27057;51.438;-0.010;2023-04-06T16:06:41;15.80;99.90
41310;DHT22;27057;51.438;-0.010;2023-04-06T16:09:08;16.50;99.90
41310;DHT22;27057;51.438;-0.010;2023-04-06T16:11:35;16.90;99.90
41310;DHT22;27057;51.438;-0.010;2023-04-06T16:16:31;16.00;99.90
41310;DHT22;27057;51.438;-0.010;2023-04-06T16:18:58;15.70;99.90
41310;DHT22;27057;51.438;-0.010;2023-04-06T16:21:26;15.10;99.90
41310;DHT22;27057;51.438;-0.010;2023-04-06T16:23:54;14.60;99.90
41310;DHT22;27057;51.438;-0.010;2023-04-06T16:26:26;14.00;99.90
41310;DHT22;27057;51.438;-0.010;2023-04-06T16:28:53;14.30;99.90
41310;DHT22;27057;51.438;-0.010;2023-04-06T16:31:22;13.50;99.90
41310;DHT22;27057;51.438;-0.010;2023-04-06T16:33:51;13.40;99.90
41310;DHT22;27057;51.438;-0.010;2023-04-06T16:36:27;13.10;99.90
41310;DHT22;27057;51.438;-0.010;2023-04-06T16:38:55;13.10;99.90
41310;DHT22;27057;51.438;-0.010;2023-04-06T16:41:23;12.90;99.90
41310;DHT22;27057;51.438;-0.010;2023-04-06T16:43:51;12.80;99.90
41310;DHT22;27057;51.438;-0.010;2023-04-06T16:46:19;13.50;99.90
41310;DHT22;27057;51.438;-0.010;2023-04-06T16:48:47;12.50;99.90
41310;DHT22;27057;51.438;-0.010;2023-04-06T16:51:15;14.40;99.90
41310;DHT22;27057;51.438;-0.010;2023-04-06T16:53:42;12.90;99.90
41310;DHT22;27057;51.438;-0.010;2023-04-06T16:56:10;12.30;99.90